createdAt,value
2022-12-22T00:00:05.372Z,4.22
2022-12-22T00:02:58.551Z,3.20
2022-12-22T00:05:44.564Z,3.50
2022-12-22T00:08:29.882Z,3.28
2022-12-22T00:11:16.776Z,4.00
2022-12-22T00:14:04.528Z,2.83
2022-12-22T00:16:55.703Z,2.08
2022-12-22T00:22:38.642Z,2.25
2022-12-22T00:25:24.646Z,3.17
2022-12-22T00:28:10.646Z,2.72
2022-12-22T00:30:56.418Z,2.50
2022-12-22T00:33:41.796Z,2.55
2022-12-22T00:36:30.474Z,2.83
2022-12-22T00:39:15.746Z,2.42
2022-12-22T00:42:01.935Z,2.75
2022-12-22T00:44:47.265Z,2.13
2022-12-22T00:47:38.817Z,2.40
2022-12-22T00:50:26.761Z,2.20
2022-12-22T00:53:12.955Z,2.40
2022-12-22T00:55:58.604Z,2.72
2022-12-22T00:58:43.853Z,2.72
2022-12-22T01:01:31.008Z,2.38
2022-12-22T01:04:16.520Z,1.88
2022-12-22T01:07:02.539Z,2.30
2022-12-22T01:09:48.466Z,2.55
2022-12-22T01:12:38.798Z,2.70
2022-12-22T01:15:50.215Z,2.40
2022-12-22T01:21:22.988Z,1.67
2022-12-22T01:24:08.442Z,1.55
2022-12-22T01:26:54.120Z,1.30
2022-12-22T01:29:39.434Z,1.60
2022-12-22T01:32:27.335Z,1.58
2022-12-22T01:35:12.777Z,1.77
2022-12-22T01:37:58.282Z,1.80
2022-12-22T01:40:43.596Z,1.45
2022-12-22T01:43:40.101Z,1.73
2022-12-22T01:46:47.277Z,2.03
2022-12-22T01:49:50.590Z,1.73
2022-12-22T01:52:38.247Z,1.92
2022-12-22T01:55:33.833Z,2.50
2022-12-22T01:58:19.356Z,1.75
2022-12-22T02:01:06.306Z,2.30
2022-12-22T02:03:52.038Z,1.92
2022-12-22T02:06:59.556Z,2.10
2022-12-22T02:10:10.286Z,2.13
2022-12-22T02:13:07.922Z,1.92
2022-12-22T02:16:03.903Z,1.98
2022-12-22T02:19:17.947Z,2.20
2022-12-22T02:22:33.811Z,3.03
2022-12-22T02:25:25.269Z,3.33
2022-12-22T02:28:14.060Z,4.05
2022-12-22T02:31:00.774Z,4.10
2022-12-22T02:33:46.385Z,3.35
2022-12-22T02:36:44.733Z,3.60
2022-12-22T02:39:56.504Z,3.42
2022-12-22T02:42:55.011Z,2.95
2022-12-22T02:45:48.773Z,3.80
2022-12-22T02:48:51.180Z,3.72
2022-12-22T02:51:40.118Z,2.45
2022-12-22T02:54:26.560Z,2.80
2022-12-22T02:57:12.148Z,2.40
2022-12-22T02:59:57.438Z,2.30
2022-12-22T03:02:43.148Z,3.63
2022-12-22T03:05:28.954Z,3.17
2022-12-22T03:08:14.454Z,2.75
2022-12-22T03:10:59.767Z,2.50
2022-12-22T03:13:45.387Z,3.00
2022-12-22T03:16:30.691Z,3.28
2022-12-22T03:19:16.098Z,2.53
2022-12-22T03:22:01.559Z,2.10
2022-12-22T03:24:46.871Z,2.45
2022-12-22T03:27:13.680Z,1.83
2022-12-22T03:29:40.495Z,1.92
2022-12-22T03:32:07.523Z,2.67
2022-12-22T03:34:34.274Z,3.35
2022-12-22T03:37:01.107Z,3.10
2022-12-22T03:39:27.894Z,5.25
2022-12-22T03:42:17.711Z,2.90
2022-12-22T03:45:03.356Z,3.55
2022-12-22T03:47:31.885Z,3.20
2022-12-22T03:49:58.637Z,1.60
2022-12-22T03:52:25.789Z,2.22
2022-12-22T03:54:52.561Z,2.20
2022-12-22T03:57:19.328Z,3.70
2022-12-22T03:59:46.319Z,2.95
2022-12-22T04:02:13.196Z,2.30
2022-12-22T04:04:40.021Z,2.00
2022-12-22T04:07:06.869Z,1.38
2022-12-22T04:09:34.149Z,1.65
2022-12-22T04:12:19.695Z,1.40
2022-12-22T04:14:46.621Z,1.55
2022-12-22T04:17:13.424Z,1.33
2022-12-22T04:19:40.215Z,1.65
2022-12-22T04:22:07.296Z,1.42
2022-12-22T04:24:34.379Z,1.67
2022-12-22T04:27:01.141Z,1.58
2022-12-22T04:29:27.908Z,1.98
2022-12-22T04:31:54.845Z,1.60
2022-12-22T04:34:21.693Z,1.60
2022-12-22T04:36:48.453Z,1.48
2022-12-22T04:39:15.256Z,1.08
2022-12-22T04:41:42.028Z,1.77
2022-12-22T04:44:08.903Z,1.38
2022-12-22T04:46:35.679Z,1.75
2022-12-22T04:49:02.480Z,1.38
2022-12-22T04:51:29.223Z,0.85
2022-12-22T04:53:56.366Z,1.08
2022-12-22T04:56:23.311Z,1.00
2022-12-22T04:58:50.056Z,1.10
2022-12-22T05:01:18.381Z,1.23
2022-12-22T05:03:45.885Z,1.00
2022-12-22T05:06:13.214Z,1.30
2022-12-22T05:08:40.117Z,1.30
2022-12-22T05:11:07.204Z,1.00
2022-12-22T05:13:34.272Z,1.08
2022-12-22T05:16:09.446Z,1.20
2022-12-22T05:18:37.201Z,1.25
2022-12-22T05:21:09.503Z,1.00
2022-12-22T05:23:36.504Z,1.58
2022-12-22T05:26:03.960Z,1.30
2022-12-22T05:28:32.094Z,1.40
2022-12-22T05:31:05.355Z,1.10
2022-12-22T05:33:32.656Z,1.88
2022-12-22T05:35:59.492Z,1.45
2022-12-22T05:38:26.522Z,1.27
2022-12-22T05:40:58.221Z,1.33
2022-12-22T05:43:28.555Z,1.00
2022-12-22T05:45:55.348Z,1.17
2022-12-22T05:48:28.273Z,1.20
2022-12-22T05:50:56.435Z,1.20
2022-12-22T05:53:23.179Z,1.30
2022-12-22T05:55:49.979Z,1.30
2022-12-22T05:58:16.872Z,1.67
2022-12-22T06:00:43.637Z,1.10
2022-12-22T06:03:10.687Z,1.65
2022-12-22T06:05:37.544Z,1.38
2022-12-22T06:08:04.645Z,1.15
2022-12-22T06:10:31.511Z,1.35
2022-12-22T06:12:58.267Z,1.52
2022-12-22T06:15:25.048Z,1.60
2022-12-22T06:17:51.865Z,1.40
2022-12-22T06:20:18.728Z,1.30
2022-12-22T06:22:45.490Z,0.90
2022-12-22T06:25:18.156Z,1.33
2022-12-22T06:27:46.490Z,1.75
2022-12-22T06:30:14.407Z,1.35
2022-12-22T06:32:41.296Z,1.48
2022-12-22T06:35:09.691Z,2.00
2022-12-22T06:37:36.582Z,1.42
2022-12-22T06:40:04.027Z,1.63
2022-12-22T06:42:49.599Z,1.92
2022-12-22T06:45:16.547Z,1.90
2022-12-22T06:47:43.351Z,1.75
2022-12-22T06:50:10.515Z,2.00
2022-12-22T06:52:37.350Z,2.08
2022-12-22T06:55:04.539Z,1.67
2022-12-22T06:57:31.488Z,2.10
2022-12-22T06:59:58.319Z,2.00
2022-12-22T07:02:25.931Z,1.80
2022-12-22T07:04:52.941Z,4.70
2022-12-22T07:07:19.684Z,2.63
2022-12-22T07:09:46.469Z,2.00
2022-12-22T07:12:13.644Z,1.98
2022-12-22T07:14:40.630Z,1.60
2022-12-22T07:17:09.038Z,1.52
2022-12-22T07:19:35.895Z,1.58
2022-12-22T07:22:02.984Z,2.55
2022-12-22T07:24:29.789Z,2.42
2022-12-22T07:26:56.839Z,1.55
2022-12-22T07:29:23.988Z,1.95
2022-12-22T07:31:50.884Z,2.33
2022-12-22T07:34:18.252Z,3.25
2022-12-22T07:36:45.225Z,2.00
2022-12-22T07:39:13.227Z,1.98
2022-12-22T07:41:58.671Z,1.20
2022-12-22T07:44:25.557Z,1.27
2022-12-22T07:46:52.457Z,1.20
2022-12-22T07:49:37.710Z,1.42
2022-12-22T07:52:04.888Z,1.38
2022-12-22T07:54:36.587Z,1.42
2022-12-22T07:57:06.589Z,1.05
2022-12-22T07:59:33.322Z,1.63
2022-12-22T08:02:00.264Z,1.20
2022-12-22T08:04:27.196Z,0.90
2022-12-22T08:06:55.136Z,0.80
2022-12-22T08:09:22.993Z,3.45
2022-12-22T08:11:50.175Z,1.35
2022-12-22T08:14:17.072Z,0.98
2022-12-22T08:16:43.979Z,1.17
2022-12-22T08:19:10.947Z,1.23
2022-12-22T08:21:37.757Z,1.58
2022-12-22T08:24:04.962Z,1.33
2022-12-22T08:26:37.736Z,1.85
2022-12-22T08:29:07.630Z,1.50
2022-12-22T08:31:35.044Z,1.83
2022-12-22T08:34:06.156Z,1.95
2022-12-22T08:36:37.780Z,1.20
2022-12-22T08:39:04.920Z,1.75
2022-12-22T08:41:51.789Z,2.28
2022-12-22T08:44:27.616Z,1.63
2022-12-22T08:46:58.024Z,1.67
2022-12-22T08:49:26.344Z,1.60
2022-12-22T08:51:53.675Z,1.85
2022-12-22T08:54:21.030Z,1.17
2022-12-22T08:56:48.088Z,1.35
2022-12-22T08:59:15.254Z,1.30
2022-12-22T09:01:48.000Z,1.25
2022-12-22T09:04:16.638Z,1.20
2022-12-22T09:06:43.455Z,0.98
2022-12-22T09:09:13.251Z,1.35
2022-12-22T09:11:40.699Z,1.45
2022-12-22T09:14:09.597Z,1.20
2022-12-22T09:16:37.027Z,1.35
2022-12-22T09:19:04.592Z,2.72
2022-12-22T09:21:31.439Z,4.28
2022-12-22T09:23:58.874Z,1.10
2022-12-22T09:26:28.411Z,1.02
2022-12-22T09:28:55.800Z,1.30
2022-12-22T09:31:24.192Z,1.42
2022-12-22T09:33:51.763Z,1.35
2022-12-22T09:36:28.467Z,0.80
2022-12-22T09:38:55.244Z,0.82
2022-12-22T09:41:37.319Z,0.68
2022-12-22T09:44:14.977Z,0.60
2022-12-22T09:46:42.237Z,1.02
2022-12-22T09:49:15.542Z,0.60
2022-12-22T09:51:48.081Z,0.80
2022-12-22T09:54:16.032Z,0.77
2022-12-22T09:56:42.884Z,0.60
2022-12-22T09:59:15.208Z,0.60
2022-12-22T10:01:57.943Z,0.60
2022-12-22T10:04:49.645Z,0.63
2022-12-22T10:07:19.237Z,0.90
2022-12-22T10:09:50.042Z,0.52
2022-12-22T10:12:21.423Z,0.90
2022-12-22T10:14:50.137Z,0.60
2022-12-22T10:17:25.720Z,0.60
2022-12-22T10:19:54.823Z,0.60
2022-12-22T10:22:31.956Z,0.60
2022-12-22T10:25:04.483Z,0.70
2022-12-22T10:27:41.963Z,0.50
2022-12-22T10:30:29.863Z,0.50
2022-12-22T10:33:13.039Z,0.50
2022-12-22T10:35:57.793Z,0.75
2022-12-22T10:38:32.420Z,0.50
2022-12-22T10:41:19.644Z,0.88
2022-12-22T10:43:50.696Z,0.85
2022-12-22T10:48:45.267Z,0.68
2022-12-22T10:51:14.884Z,0.68
2022-12-22T10:53:48.813Z,0.50
2022-12-22T10:56:30.590Z,0.80
2022-12-22T10:59:12.889Z,0.63
2022-12-22T11:01:39.820Z,0.50
2022-12-22T11:04:23.103Z,0.73
2022-12-22T11:06:50.097Z,0.70
2022-12-22T11:09:33.314Z,0.90
2022-12-22T11:12:08.644Z,0.80
2022-12-22T11:15:24.033Z,0.75
2022-12-22T11:18:13.130Z,0.60
2022-12-22T11:20:58.830Z,0.63
2022-12-22T11:23:42.498Z,0.70
2022-12-22T11:26:18.399Z,0.60
2022-12-22T11:29:05.030Z,0.52
2022-12-22T11:31:59.138Z,0.50
2022-12-22T11:35:04.297Z,0.63
2022-12-22T11:37:41.580Z,0.77
2022-12-22T11:40:45.581Z,1.00
2022-12-22T11:43:41.172Z,1.40
2022-12-22T11:46:23.185Z,1.70
2022-12-22T11:48:59.217Z,1.35
2022-12-22T11:51:31.953Z,1.45
2022-12-22T11:54:11.835Z,1.48
2022-12-22T11:56:42.595Z,1.83
2022-12-22T11:59:24.853Z,1.75
2022-12-22T12:01:54.457Z,1.70
2022-12-22T12:04:42.750Z,1.70
2022-12-22T12:07:26.039Z,1.15
2022-12-22T12:10:15.812Z,1.75
2022-12-22T12:12:50.334Z,1.67
2022-12-22T12:15:33.810Z,1.60
2022-12-22T12:18:19.970Z,1.48
2022-12-22T12:21:18.159Z,1.70
2022-12-22T12:24:16.790Z,1.65
2022-12-22T12:26:52.399Z,1.88
2022-12-22T12:29:23.137Z,1.40
2022-12-22T12:32:03.457Z,1.90
2022-12-22T12:34:35.148Z,3.00
2022-12-22T12:37:07.520Z,2.38
2022-12-22T12:39:55.757Z,2.22
2022-12-22T12:42:34.806Z,1.90
2022-12-22T12:45:02.473Z,1.40
2022-12-22T12:47:31.297Z,1.73
2022-12-22T12:50:02.250Z,1.67
2022-12-22T12:55:32.319Z,2.08
2022-12-22T12:58:03.316Z,1.70
2022-12-22T13:00:37.078Z,1.70
2022-12-22T13:03:30.745Z,2.20
2022-12-22T13:06:05.247Z,2.33
2022-12-22T13:08:33.679Z,1.70
2022-12-22T13:11:00.485Z,1.98
2022-12-22T13:13:27.373Z,2.15
2022-12-22T13:16:00.361Z,1.80
2022-12-22T13:18:28.378Z,1.50
2022-12-22T13:21:12.215Z,1.67
2022-12-22T13:24:24.837Z,2.70
2022-12-22T13:26:55.182Z,1.85
2022-12-22T13:29:22.117Z,2.25
2022-12-22T13:31:54.627Z,2.25
2022-12-22T13:35:28.297Z,1.98
2022-12-22T13:37:41.656Z,2.28
2022-12-22T13:40:30.949Z,2.33
2022-12-22T13:43:11.375Z,2.88
2022-12-22T13:45:44.213Z,2.58
2022-12-22T13:48:44.778Z,2.42
2022-12-22T13:51:28.626Z,3.05
2022-12-22T13:54:09.094Z,2.17
2022-12-22T13:56:41.779Z,2.22
2022-12-22T13:59:29.494Z,2.67
2022-12-22T14:02:01.208Z,4.35
2022-12-22T14:04:30.410Z,3.50
2022-12-22T14:06:57.275Z,2.83
2022-12-22T14:09:28.208Z,2.55
2022-12-22T14:12:04.114Z,2.53
2022-12-22T14:14:39.032Z,3.28
2022-12-22T14:17:36.315Z,2.92
2022-12-22T14:20:27.674Z,3.88
2022-12-22T14:25:30.864Z,3.35
2022-12-22T14:27:58.955Z,3.22
2022-12-22T14:30:38.533Z,2.97
2022-12-22T14:33:27.981Z,3.40
2022-12-22T14:36:16.388Z,3.97
2022-12-22T14:38:49.405Z,3.03
2022-12-22T14:41:44.315Z,3.30
2022-12-22T14:44:24.873Z,3.50
2022-12-22T14:47:11.769Z,4.25
2022-12-22T14:49:52.124Z,3.80
2022-12-22T14:52:24.913Z,3.83
2022-12-22T14:54:53.867Z,2.88
2022-12-22T14:57:32.459Z,4.72
2022-12-22T15:00:30.075Z,3.67
2022-12-22T15:03:32.270Z,4.97
2022-12-22T15:06:24.550Z,5.35
2022-12-22T15:08:53.392Z,4.78
2022-12-22T15:11:23.669Z,5.20
2022-12-22T15:13:51.666Z,6.03
2022-12-22T15:16:21.250Z,3.75
2022-12-22T15:18:48.713Z,5.57
2022-12-22T15:21:17.574Z,5.38
2022-12-22T15:23:44.821Z,4.95
2022-12-22T15:26:12.326Z,5.35
2022-12-22T15:28:39.171Z,5.00
2022-12-22T15:31:14.330Z,5.05
2022-12-22T15:33:42.282Z,4.18
2022-12-22T15:36:13.075Z,6.45
2022-12-22T15:38:40.792Z,6.07
2022-12-22T15:41:08.075Z,5.90
2022-12-22T15:46:22.867Z,5.65
2022-12-22T15:48:49.888Z,4.70
2022-12-22T15:51:24.720Z,5.78
2022-12-22T15:53:52.079Z,5.22
2022-12-22T15:56:24.005Z,5.30
2022-12-22T15:58:51.200Z,7.85
2022-12-22T16:01:18.092Z,7.13
2022-12-22T16:03:45.120Z,6.43
2022-12-22T16:06:17.869Z,7.03
2022-12-22T16:08:49.415Z,5.80
2022-12-22T16:11:17.119Z,6.57
2022-12-22T16:13:44.768Z,6.63
2022-12-22T16:16:12.068Z,7.18
2022-12-22T16:18:39.025Z,6.55
2022-12-22T16:21:16.916Z,6.72
2022-12-22T16:23:45.589Z,6.50
2022-12-22T16:26:17.675Z,7.25
2022-12-22T16:28:44.977Z,7.75
2022-12-22T16:31:21.003Z,7.07
2022-12-22T16:33:48.439Z,8.68
2022-12-22T16:36:15.270Z,7.32
2022-12-22T16:38:43.564Z,6.78
2022-12-22T16:41:25.490Z,7.43
2022-12-22T16:43:59.531Z,7.78
2022-12-22T16:46:30.777Z,7.53
2022-12-22T16:49:01.502Z,8.57
2022-12-22T16:51:33.695Z,9.75
2022-12-22T16:54:01.256Z,9.60
2022-12-22T16:56:30.611Z,9.65
2022-12-22T16:58:57.719Z,8.07
2022-12-22T17:01:37.914Z,8.93
2022-12-22T17:04:11.237Z,8.95
2022-12-22T17:06:38.600Z,7.70
2022-12-22T17:09:09.949Z,6.40
2022-12-22T17:11:37.401Z,9.73
2022-12-22T17:14:17.104Z,7.55
2022-12-22T17:16:43.961Z,8.68
2022-12-22T17:19:13.413Z,7.10
2022-12-22T17:21:40.303Z,6.57
2022-12-22T17:24:09.855Z,8.55
2022-12-22T17:26:36.900Z,8.20
2022-12-22T17:29:04.640Z,7.90
2022-12-22T17:31:31.582Z,8.65
2022-12-22T17:33:58.625Z,7.38
2022-12-22T17:36:33.580Z,8.00
2022-12-22T17:39:01.839Z,7.88
2022-12-22T17:41:29.021Z,11.30
2022-12-22T17:43:56.172Z,13.02
2022-12-22T17:46:23.272Z,10.38
2022-12-22T17:48:50.485Z,10.90
2022-12-22T17:51:23.315Z,8.18
2022-12-22T17:53:50.891Z,9.40
2022-12-22T17:56:24.071Z,11.13
2022-12-22T17:58:51.236Z,12.55
2022-12-22T18:01:23.923Z,15.13
2022-12-22T18:03:51.036Z,11.15
2022-12-22T18:06:19.930Z,11.00
2022-12-22T18:08:47.649Z,9.90
2022-12-22T18:11:14.898Z,8.85
2022-12-22T18:13:42.112Z,8.55
2022-12-22T18:16:14.814Z,9.52
2022-12-22T18:18:42.746Z,8.98
2022-12-22T18:21:15.340Z,8.57
2022-12-22T18:23:49.672Z,8.68
2022-12-22T18:26:21.729Z,9.15
2022-12-22T18:28:49.399Z,10.13
2022-12-22T18:31:16.377Z,8.63
2022-12-22T18:33:43.182Z,9.38
2022-12-22T18:36:31.615Z,7.40
2022-12-22T18:39:00.762Z,7.38
2022-12-22T18:41:31.847Z,9.02
2022-12-22T18:43:58.675Z,9.98
2022-12-22T18:46:25.558Z,9.93
2022-12-22T18:48:52.687Z,11.85
2022-12-22T18:51:24.171Z,10.82
2022-12-22T18:53:53.302Z,7.95
2022-12-22T18:58:48.921Z,8.13
2022-12-22T19:01:24.641Z,7.93
2022-12-22T19:03:55.106Z,6.53
2022-12-22T19:06:23.362Z,6.88
2022-12-22T19:08:50.971Z,11.40
2022-12-22T19:11:24.513Z,6.60
2022-12-22T19:13:51.944Z,6.28
2022-12-22T19:16:23.127Z,4.90
2022-12-22T19:18:50.252Z,7.18
2022-12-22T19:21:18.581Z,8.23
2022-12-22T19:23:45.772Z,7.28
2022-12-22T19:26:25.275Z,11.68
2022-12-22T19:28:56.030Z,10.13
2022-12-22T19:31:29.188Z,6.30
2022-12-22T19:34:00.402Z,6.88
2022-12-22T19:36:29.935Z,6.60
2022-12-22T19:39:05.609Z,5.45
2022-12-22T19:41:40.360Z,5.65
2022-12-22T19:44:24.258Z,6.03
2022-12-22T19:46:52.833Z,6.90
2022-12-22T19:49:22.512Z,5.18
2022-12-22T19:51:49.994Z,4.35
2022-12-22T19:54:19.912Z,5.63
2022-12-22T19:56:50.447Z,6.53
2022-12-22T19:59:37.534Z,6.85
2022-12-22T20:02:21.102Z,5.32
2022-12-22T20:04:49.122Z,6.30
2022-12-22T20:07:18.112Z,5.00
2022-12-22T20:09:45.074Z,5.03
2022-12-22T20:12:34.786Z,4.40
2022-12-22T20:15:07.185Z,5.75
2022-12-22T20:17:33.995Z,3.63
2022-12-22T20:20:00.775Z,4.43
2022-12-22T20:22:28.501Z,5.38
2022-12-22T20:24:55.403Z,5.00
2022-12-22T20:27:27.106Z,4.55
2022-12-22T20:29:54.274Z,4.28
2022-12-22T20:32:27.622Z,6.22
2022-12-22T20:34:55.670Z,4.82
2022-12-22T20:37:22.624Z,5.05
2022-12-22T20:39:49.423Z,4.03
2022-12-22T20:42:24.086Z,5.32
2022-12-22T20:45:03.716Z,4.90
2022-12-22T20:47:33.635Z,3.58
2022-12-22T20:50:00.530Z,4.63
2022-12-22T20:52:27.391Z,4.78
2022-12-22T20:54:54.521Z,3.83
2022-12-22T20:57:23.139Z,5.10
2022-12-22T20:59:55.693Z,4.53
2022-12-22T21:02:27.599Z,3.70
2022-12-22T21:04:54.881Z,4.25
2022-12-22T21:07:21.797Z,3.80
2022-12-22T21:09:48.725Z,4.60
2022-12-22T21:12:15.530Z,3.97
2022-12-22T21:14:42.368Z,4.35
2022-12-22T21:17:19.765Z,2.53
2022-12-22T21:19:46.727Z,3.33
2022-12-22T21:22:13.796Z,3.88
2022-12-22T21:24:58.968Z,3.17
2022-12-22T21:27:47.446Z,3.60
2022-12-22T21:30:32.959Z,3.20
2022-12-22T21:32:59.816Z,2.97
2022-12-22T21:35:33.248Z,3.10
2022-12-22T21:38:00.481Z,4.00
2022-12-22T21:40:32.118Z,3.60
2022-12-22T21:42:59.561Z,3.83
2022-12-22T21:45:29.619Z,3.97
2022-12-22T21:48:00.817Z,4.32
2022-12-22T21:52:56.582Z,3.15
2022-12-22T21:55:28.342Z,2.30
2022-12-22T21:57:55.358Z,3.45
2022-12-22T22:00:23.482Z,3.55
2022-12-22T22:02:51.558Z,3.55
2022-12-22T22:05:28.787Z,4.10
2022-12-22T22:07:56.783Z,3.78
2022-12-22T22:10:26.598Z,2.92
2022-12-22T22:12:53.568Z,3.47
2022-12-22T22:15:22.187Z,3.47
2022-12-22T22:17:49.103Z,3.42
2022-12-22T22:20:24.200Z,2.90
2022-12-22T22:22:52.451Z,2.97
2022-12-22T22:32:49.505Z,3.83
2022-12-22T22:41:20.633Z,5.32
2022-12-22T22:43:47.475Z,4.57
2022-12-22T22:50:34.554Z,3.45
2022-12-22T22:53:01.316Z,3.95
2022-12-22T22:55:28.066Z,3.03
2022-12-22T22:57:54.899Z,3.75
2022-12-22T23:00:21.898Z,3.95
2022-12-22T23:02:48.854Z,4.05
2022-12-22T23:05:22.403Z,3.60
2022-12-22T23:07:50.000Z,3.28
2022-12-22T23:10:16.825Z,3.35
2022-12-22T23:12:43.606Z,3.35
2022-12-22T23:15:10.618Z,2.47
2022-12-22T23:17:37.458Z,2.38
2022-12-22T23:20:04.704Z,2.42
2022-12-22T23:22:31.472Z,2.72
2022-12-22T23:24:58.572Z,2.47
2022-12-22T23:27:25.332Z,3.05
2022-12-22T23:29:52.190Z,2.13
2022-12-22T23:32:19.019Z,1.92
2022-12-22T23:34:47.444Z,2.60
2022-12-22T23:37:19.307Z,2.10
2022-12-22T23:39:46.862Z,1.85
2022-12-22T23:42:13.688Z,2.13
2022-12-22T23:44:40.464Z,2.45
2022-12-22T23:47:07.789Z,2.30
2022-12-22T23:49:34.696Z,2.35
2022-12-22T23:52:01.498Z,2.47
2022-12-22T23:54:30.292Z,1.90
2022-12-22T23:56:57.209Z,1.85
2022-12-22T23:59:24.033Z,2.17
